Time;durP1;ratioP1;P1;durP2;ratioP2;P2;SDS_P1;SDS_P2;PMS_P1;PMS_P2;Temp;Humidity;BMP_temperature;BMP_pressure;BME280_temperature;BME280_humidity;BME280_pressure;Samples;Min_cycle;Max_cycle;Signal;HPM_P1;HPM_P2
2022/10/05 00:01:00;;;;;;;6.55;3.80;;;;;;;13.38;44.81;101496.81;5023092;28;20583;-70
2022/10/05 00:03:35;;;;;;;6.70;3.88;;;;;;;13.36;44.86;101487.84;5017272;28;20041;-69
2022/10/05 00:06:05;;;;;;;6.65;4.25;;;;;;;13.32;45.06;101480.88;5024735;28;20042;-70
2022/10/05 00:08:34;;;;;;;5.72;4.10;;;;;;;13.31;45.20;101475.50;5027384;28;20042;-70
2022/10/05 00:11:07;;;;;;;6.40;3.83;;;;;;;13.31;45.49;101478.25;5017793;28;20040;-69
2022/10/05 00:13:35;;;;;;;5.82;3.70;;;;;;;13.24;45.33;101476.06;5016525;28;20429;-70
2022/10/05 00:16:12;;;;;;;7.63;4.18;;;;;;;13.27;45.64;101477.66;5026557;28;20053;-69
2022/10/05 00:18:40;;;;;;;6.20;3.83;;;;;;;13.22;45.05;101468.94;5012521;28;20054;-69
2022/10/05 00:21:17;;;;;;;6.18;4.07;;;;;;;13.23;45.68;101474.31;5006750;28;20050;-69
2022/10/05 00:23:45;;;;;;;5.97;3.85;;;;;;;13.18;45.37;101473.00;5019369;28;20121;-70
2022/10/05 00:26:19;;;;;;;5.40;3.67;;;;;;;13.19;45.62;101470.09;5018161;28;20086;-69
2022/10/05 00:28:48;;;;;;;6.57;3.80;;;;;;;13.17;45.04;101463.00;5026244;28;20056;-69
2022/10/05 00:31:19;;;;;;;7.18;3.88;;;;;;;13.17;45.65;101460.25;5026613;28;20050;-70
2022/10/05 00:33:48;;;;;;;7.20;3.92;;;;;;;13.14;45.42;101460.50;5026683;28;20113;-69
2022/10/05 00:36:16;;;;;;;5.97;4.13;;;;;;;13.12;45.09;101455.16;5027180;28;20556;-69
2022/10/05 00:38:45;;;;;;;7.18;3.88;;;;;;;13.12;45.57;101454.28;4989731;28;20073;-70
2022/10/05 00:41:21;;;;;;;5.50;3.85;;;;;;;13.14;45.56;101455.88;5009073;28;20124;-69
2022/10/05 00:44:04;;;;;;;6.28;3.67;;;;;;;13.13;46.06;101451.41;5022015;28;20041;-70
2022/10/05 00:46:42;;;;;;;5.40;4.00;;;;;;;13.11;45.96;101455.31;5026204;28;20294;-70
2022/10/05 00:49:21;;;;;;;7.65;4.20;;;;;;;13.11;45.50;101463.56;5027308;28;20080;-69
2022/10/05 00:51:59;;;;;;;6.25;4.00;;;;;;;13.09;45.50;101457.31;5012272;28;20290;-69
2022/10/05 00:54:34;;;;;;;6.25;3.58;;;;;;;13.09;45.71;101462.81;5000132;28;20144;-69
2022/10/05 00:57:21;;;;;;;7.90;4.38;;;;;;;13.07;46.51;101453.81;5025379;28;20044;-70
2022/10/05 01:00:03;;;;;;;5.60;3.90;;;;;;;13.06;45.82;101458.44;5025211;28;20125;-69
2022/10/05 01:02:42;;;;;;;5.57;4.03;;;;;;;13.04;45.84;101457.69;5003655;28;20136;-70
2022/10/05 01:05:15;;;;;;;6.63;4.07;;;;;;;13.03;46.00;101450.50;5005611;28;20054;-69
2022/10/05 01:07:50;;;;;;;;;;;;;;;12.75;46.36;101459.41;5007804;28;20157;-69
2022/10/05 01:10:26;;;;;;;4.95;3.20;;;;;;;13.00;46.25;101463.63;5002239;28;19928;-70
2022/10/05 01:13:06;;;;;;;5.68;3.35;;;;;;;13.03;45.97;101460.63;5027996;28;20044;-70
2022/10/05 01:15:43;;;;;;;5.07;3.55;;;;;;;13.01;45.47;101455.25;4993898;28;20044;-69
2022/10/05 01:18:16;;;;;;;6.30;3.72;;;;;;;13.01;45.82;101455.25;5012540;28;20121;-70
2022/10/05 01:20:55;;;;;;;5.53;3.35;;;;;;;13.02;45.67;101458.88;5007786;28;20132;-69
2022/10/05 01:23:48;;;;;;;5.50;3.92;;;;;;;13.02;45.74;101450.63;5006294;28;20061;-70
2022/10/05 01:26:38;;;;;;;7.10;4.13;;;;;;;12.99;46.29;101456.38;4968551;28;20427;-69
2022/10/05 01:29:16;;;;;;;4.70;3.40;;;;;;;12.99;45.76;101451.75;5014405;28;20038;-70
2022/10/05 01:31:52;;;;;;;5.97;3.83;;;;;;;12.99;45.62;101446.25;5012649;28;20042;-70
2022/10/05 01:34:27;;;;;;;6.03;4.10;;;;;;;12.98;45.74;101443.66;5003145;28;20458;-69
2022/10/05 01:37:04;;;;;;;5.82;3.92;;;;;;;12.97;46.03;101439.16;5032507;28;20577;-69
2022/10/05 01:39:41;;;;;;;5.93;3.80;;;;;;;12.94;45.86;101429.31;5002243;28;20140;-70
2022/10/05 01:42:19;;;;;;;6.60;3.67;;;;;;;12.94;46.16;101425.72;5023449;28;20489;-70
2022/10/05 01:44:54;;;;;;;5.97;3.63;;;;;;;12.93;46.07;101429.47;5016095;28;20050;-70
2022/10/05 01:47:31;;;;;;;6.50;3.85;;;;;;;12.90;45.96;101430.59;5022423;28;20050;-70
2022/10/05 01:50:03;;;;;;;5.95;3.55;;;;;;;12.87;45.80;101428.97;5022398;28;20041;-70
2022/10/05 01:52:42;;;;;;;6.15;4.07;;;;;;;12.86;46.32;101429.13;5011123;28;20077;-70
2022/10/05 01:55:18;;;;;;;5.97;3.60;;;;;;;12.84;46.44;101421.03;5060488;23;20112;-82
2022/10/05 01:58:02;;;;;;;5.55;3.83;;;;;;;12.84;46.13;101425.66;5035487;28;20045;-82
2022/10/05 02:00:35;;;;;;;5.38;3.60;;;;;;;12.81;46.32;101421.28;5027974;28;20049;-82
2022/10/05 02:03:08;;;;;;;6.50;4.18;;;;;;;12.78;46.56;101416.09;5034334;28;20567;-81
2022/10/05 02:05:41;;;;;;;5.22;3.40;;;;;;;12.79;46.52;101420.53;5005099;28;20049;-82
2022/10/05 02:08:14;;;;;;;6.88;4.60;;;;;;;12.77;46.65;101413.47;5022169;28;20042;-81
2022/10/05 02:10:49;;;;;;;7.78;4.20;;;;;;;12.79;46.19;101419.66;5020185;28;20046;-82
2022/10/05 02:13:25;;;;;;;5.88;4.03;;;;;;;12.77;46.89;101417.09;5042896;28;20040;-81
2022/10/05 02:16:00;;;;;;;7.03;3.88;;;;;;;12.77;46.83;101418.97;5036846;28;20392;-81
2022/10/05 02:18:32;;;;;;;7.00;4.18;;;;;;;12.75;46.15;101412.72;5051070;28;20135;-80
2022/10/05 02:21:04;;;;;;;5.78;3.78;;;;;;;12.73;46.62;101403.75;5030487;28;20038;-81
2022/10/05 02:23:35;;;;;;;6.00;4.43;;;;;;;12.74;46.70;101400.84;5021567;28;20065;-81
2022/10/05 02:26:06;;;;;;;5.80;4.03;;;;;;;12.74;46.43;101408.22;5043003;28;20377;-80
2022/10/05 02:28:39;;;;;;;6.82;3.90;;;;;;;12.74;46.76;101406.34;5037634;28;20050;-81
2022/10/05 02:31:11;;;;;;;5.93;4.28;;;;;;;12.74;46.84;101406.34;5019788;28;20040;-81
2022/10/05 02:33:39;;;;;;;6.38;4.40;;;;;;;12.72;46.62;101405.59;5025479;28;20041;-81
2022/10/05 02:36:16;;;;;;;7.38;4.13;;;;;;;12.74;46.49;101402.72;5029529;28;20061;-82
2022/10/05 02:39:10;;;;;;;6.50;3.75;;;;;;;12.73;47.16;101403.75;5037097;28;20493;-81
2022/10/05 02:41:49;;;;;;;5.82;3.80;;;;;;;12.74;47.13;101398.13;5019778;28;20583;-82
2022/10/05 02:44:25;;;;;;;5.38;3.72;;;;;;;12.73;46.64;101396.38;5014715;28;20056;-81
2022/10/05 02:47:05;;;;;;;6.30;3.85;;;;;;;12.74;47.23;101398.13;5047684;28;20045;-80
2022/10/05 02:49:44;;;;;;;5.50;3.75;;;;;;;12.73;46.94;101393.63;5038297;28;20144;-80
2022/10/05 02:52:18;;;;;;;7.13;4.22;;;;;;;12.73;46.76;101390.00;5033603;28;20056;-81
2022/10/05 02:54:55;;;;;;;6.90;4.22;;;;;;;12.73;46.97;101388.13;5018054;28;20048;-81
2022/10/05 02:57:28;;;;;;;6.63;3.83;;;;;;;12.73;47.05;101387.25;5033403;28;20068;-82
2022/10/05 03:00:05;;;;;;;6.05;3.50;;;;;;;12.73;47.17;101387.25;5021152;28;20124;-81
2022/10/05 03:02:41;;;;;;;6.63;4.10;;;;;;;12.74;47.38;101383.50;5040368;28;20045;-82
2022/10/05 03:05:18;;;;;;;6.38;4.07;;;;;;;12.77;47.29;101386.88;5043447;28;20048;-82
2022/10/05 03:07:55;;;;;;;6.75;4.18;;;;;;;12.77;47.26;101386.88;5020371;28;20124;-82
2022/10/05 03:10:30;;;;;;;6.53;4.00;;;;;;;12.79;47.23;101382.09;5020295;28;20523;-82
2022/10/05 03:13:04;;;;;;;5.95;3.80;;;;;;;12.82;47.75;101384.56;5048276;28;20049;-82
2022/10/05 03:15:53;;;;;;;6.07;4.45;;;;;;;12.83;47.93;101369.84;5022385;28;20042;-82
2022/10/05 03:18:33;;;;;;;6.07;3.67;;;;;;;12.85;47.66;101367.81;5020147;28;20049;-81
2022/10/05 03:21:14;;;;;;;6.35;3.92;;;;;;;12.87;47.40;101371.28;5020161;28;20088;-82
2022/10/05 03:23:57;;;;;;;6.15;4.10;;;;;;;12.90;47.57;101367.41;5019844;28;20041;-82
2022/10/05 03:26:37;;;;;;;5.50;4.10;;;;;;;12.91;47.90;101368.28;5048804;28;20108;-82
2022/10/05 03:29:16;;;;;;;7.50;3.95;;;;;;;12.93;47.44;101369.00;5009896;28;20050;-82
2022/10/05 03:31:53;;;;;;;6.63;4.10;;;;;;;12.93;47.31;101361.66;5045867;28;20432;-81
2022/10/05 03:34:32;;;;;;;6.28;3.90;;;;;;;12.97;47.74;101359.47;5026136;28;20041;-82
2022/10/05 03:37:10;;;;;;;5.78;3.92;;;;;;;12.98;47.40;101369.47;5007797;28;20697;-81
2022/10/05 03:39:44;;;;;;;5.63;3.75;;;;;;;12.99;47.46;101358.34;5048841;28;20147;-82
2022/10/05 03:42:21;;;;;;;6.25;4.28;;;;;;;13.02;47.74;101357.19;5019015;28;20037;-81
2022/10/05 03:44:56;;;;;;;6.18;4.20;;;;;;;13.02;47.71;101351.72;5032594;28;20076;-82
2022/10/05 03:47:32;;;;;;;6.28;3.92;;;;;;;13.05;47.52;101355.03;5019503;28;20482;-82
2022/10/05 03:50:20;;;;;;;6.30;4.28;;;;;;;13.06;47.97;101347.66;5019415;28;20049;-82
2022/10/05 03:52:52;;;;;;;6.75;4.10;;;;;;;13.05;47.51;101341.28;5014357;28;20046;-82
2022/10/05 03:55:28;;;;;;;6.90;4.05;;;;;;;13.07;47.41;101350.28;5037861;28;20063;-82
2022/10/05 03:58:02;;;;;;;7.03;4.45;;;;;;;13.08;47.06;101343.78;5013989;28;20509;-82
2022/10/05 04:00:33;;;;;;;6.63;4.38;;;;;;;13.09;47.29;101344.66;5012320;28;20099;-82
2022/10/05 04:03:09;;;;;;;6.32;4.38;;;;;;;13.06;47.14;101336.66;5033295;28;20470;-80
2022/10/05 04:05:47;;;;;;;6.35;4.22;;;;;;;13.10;47.74;101343.63;5052227;28;20040;-81
2022/10/05 04:08:23;;;;;;;7.55;4.20;;;;;;;13.10;47.13;101339.00;5042712;28;20554;-82
2022/10/05 04:10:54;;;;;;;6.40;4.45;;;;;;;13.09;47.22;101330.91;5018003;28;20033;-81
2022/10/05 04:13:30;;;;;;;8.85;4.03;;;;;;;13.08;47.54;101342.91;5016888;28;20072;-82
2022/10/05 04:16:03;;;;;;;6.13;4.30;;;;;;;13.08;47.29;101338.28;5045552;28;20148;-81
2022/10/05 04:18:35;;;;;;;5.82;4.00;;;;;;;13.09;47.42;101341.91;5020852;28;20114;-82
2022/10/05 04:21:10;;;;;;;6.85;4.43;;;;;;;13.08;47.29;101335.53;5028520;28;20034;-82
2022/10/05 04:23:47;;;;;;;8.20;4.32;;;;;;;13.11;47.59;101338.00;5015149;28;20037;-81
2022/10/05 04:26:19;;;;;;;6.32;4.40;;;;;;;13.10;47.41;101336.25;5027737;28;20055;-81
2022/10/05 04:28:56;;;;;;;6.55;4.22;;;;;;;13.10;47.77;101332.66;5016406;28;20041;-81
2022/10/05 04:31:44;;;;;;;6.10;4.05;;;;;;;13.12;47.63;101336.97;5016531;28;20037;-82
2022/10/05 04:34:28;;;;;;;5.57;4.05;;;;;;;13.12;47.65;101339.72;5015596;28;20048;-81
2022/10/05 04:37:03;;;;;;;6.90;4.90;;;;;;;13.12;47.44;101341.59;5016433;28;20045;-81
2022/10/05 04:39:41;;;;;;;5.82;3.92;;;;;;;13.14;47.63;101332.22;5027075;28;20045;-81
2022/10/05 04:42:18;;;;;;;8.02;4.20;;;;;;;13.14;47.62;101340.47;5016934;28;20050;-82
2022/10/05 04:45:04;;;;;;;6.15;4.32;;;;;;;13.13;47.67;101333.22;5029945;28;20133;-81
2022/10/05 04:47:55;;;;;;;6.00;3.95;;;;;;;13.16;47.38;101343.06;5016246;28;20132;-82
2022/10/05 04:50:37;;;;;;;6.75;4.20;;;;;;;13.15;47.74;101342.19;5033871;28;20116;-81
2022/10/05 04:53:22;;;;;;;6.05;3.85;;;;;;;13.18;47.62;101343.81;5028635;28;20052;-82
2022/10/05 04:55:56;;;;;;;6.18;3.83;;;;;;;13.16;47.58;101337.56;5031830;28;20531;-81
2022/10/05 04:58:36;;;;;;;6.07;3.55;;;;;;;13.18;47.48;101344.69;5017500;28;20076;-82
2022/10/05 05:01:28;;;;;;;7.03;3.88;;;;;;;13.19;47.30;101351.94;5016216;28;20088;-82
2022/10/05 05:04:11;;;;;;;5.60;3.65;;;;;;;13.18;47.50;101349.31;5028574;28;20038;-81
2022/10/05 05:06:47;;;;;;;6.07;3.92;;;;;;;13.18;47.84;101349.31;5029295;28;20041;-82
2022/10/05 05:09:29;;;;;;;6.35;3.88;;;;;;;13.21;47.32;101346.25;5051709;28;20113;-82
2022/10/05 05:12:09;;;;;;;5.82;3.85;;;;;;;13.19;47.93;101345.56;5013872;28;20128;-81
2022/10/05 05:14:54;;;;;;;5.32;3.90;;;;;;;13.21;47.74;101340.75;5013669;28;20041;-81
2022/10/05 05:17:37;;;;;;;5.85;4.05;;;;;;;13.21;47.68;101340.75;5014706;28;20045;-82
2022/10/05 05:20:18;;;;;;;6.65;4.32;;;;;;;13.22;47.51;101342.50;5017402;28;20041;-81
2022/10/05 05:22:52;;;;;;;5.78;4.03;;;;;;;13.22;47.84;101343.38;5004006;28;20103;-81
2022/10/05 05:25:40;;;;;;;6.15;4.50;;;;;;;13.23;47.61;101345.13;5021119;28;20045;-81
2022/10/05 05:28:21;;;;;;;5.35;3.80;;;;;;;13.24;47.49;101343.25;5018999;28;20050;-81
2022/10/05 05:30:57;;;;;;;6.65;4.28;;;;;;;13.24;47.34;101351.50;5017986;28;20076;-81
2022/10/05 05:33:32;;;;;;;5.97;4.10;;;;;;;13.25;47.38;101336.75;5019811;28;20052;-82
2022/10/05 05:36:13;;;;;;;6.35;3.75;;;;;;;13.27;47.54;101342.09;5047069;28;20040;-82
2022/10/05 05:38:57;;;;;;;6.13;3.63;;;;;;;13.27;47.42;101344.84;5048831;28;20245;-81
2022/10/05 05:41:35;;;;;;;6.93;4.03;;;;;;;13.27;47.54;101342.97;5016796;28;20073;-82
2022/10/05 05:44:16;;;;;;;6.25;4.00;;;;;;;13.29;47.70;101346.44;5035488;28;20045;-82
2022/10/05 05:46:53;;;;;;;5.60;4.18;;;;;;;13.29;47.63;101348.31;5032799;28;20049;-82
2022/10/05 05:49:53;;;;;;;5.88;3.53;;;;;;;13.29;47.77;101345.56;5041644;28;20045;-82
2022/10/05 05:52:27;;;;;;;5.53;3.78;;;;;;;13.27;47.33;101350.34;5023854;28;20043;-82
2022/10/05 05:55:00;;;;;;;5.63;3.65;;;;;;;13.29;47.83;101348.31;5022807;28;20052;-82
2022/10/05 05:57:38;;;;;;;5.03;3.45;;;;;;;13.31;47.49;101346.28;5031693;28;20045;-81
2022/10/05 06:00:13;;;;;;;5.65;3.83;;;;;;;13.31;47.65;101344.41;5023424;28;20057;-82
2022/10/05 06:02:53;;;;;;;7.22;4.60;;;;;;;13.33;47.67;101349.78;5023076;28;20045;-82
2022/10/05 06:05:31;;;;;;;6.32;3.75;;;;;;;13.34;47.89;101349.66;5031907;28;20056;-82
2022/10/05 06:08:11;;;;;;;6.07;4.03;;;;;;;13.34;47.51;101341.41;5026370;28;20045;-81
2022/10/05 06:10:47;;;;;;;5.80;3.75;;;;;;;13.34;47.57;101349.66;5031713;28;20056;-81
2022/10/05 06:13:23;;;;;;;5.40;3.45;;;;;;;13.33;47.91;101344.28;5016893;28;20105;-82
2022/10/05 06:15:55;;;;;;;5.55;3.50;;;;;;;13.35;47.47;101351.38;5032503;28;20095;-80
2022/10/05 06:18:25;;;;;;;6.57;3.97;;;;;;;13.33;47.22;101350.66;5030287;28;20045;-81
2022/10/05 06:21:00;;;;;;;7.70;4.28;;;;;;;13.35;47.59;101354.13;5023568;28;20037;-81
2022/10/05 06:23:37;;;;;;;6.28;4.05;;;;;;;13.38;47.67;101355.72;5023773;28;20119;-81
2022/10/05 06:26:17;;;;;;;4.82;3.50;;;;;;;13.39;47.54;101358.34;5026692;28;20060;-81
2022/10/05 06:28:52;;;;;;;4.93;3.55;;;;;;;13.39;47.38;101357.47;5019758;28;20038;-81
2022/10/05 06:31:35;;;;;;;6.57;3.92;;;;;;;13.39;47.44;101361.09;5022611;28;20052;-81
2022/10/05 06:34:17;;;;;;;5.38;3.45;;;;;;;13.39;47.69;101361.09;5043709;28;20056;-81
2022/10/05 06:36:50;;;;;;;6.47;3.55;;;;;;;13.40;47.62;101360.06;5033315;28;20415;-82
2022/10/05 06:39:45;;;;;;;5.60;3.75;;;;;;;13.40;47.92;101343.56;5025053;28;20042;-83
2022/10/05 06:42:46;;;;;;;6.25;3.90;;;;;;;13.40;47.61;101342.72;5036081;28;20041;-82
2022/10/05 06:45:48;;;;;;;5.38;3.40;;;;;;;13.41;47.87;101348.06;5028733;28;20046;-81
2022/10/05 06:48:35;;;;;;;6.20;4.18;;;;;;;13.43;47.77;101346.06;5039878;28;20115;-81
2022/10/05 06:51:26;;;;;;;5.43;3.70;;;;;;;13.44;47.58;101344.19;5019843;28;20064;-81
2022/10/05 06:54:41;;;;;;;5.28;3.30;;;;;;;13.46;47.13;101345.75;5014124;28;20045;-81
2022/10/05 06:57:24;;;;;;;5.53;3.20;;;;;;;13.46;47.32;101345.75;5028849;28;20068;-82
2022/10/05 06:59:59;;;;;;;5.82;3.78;;;;;;;13.48;47.20;101348.38;5004183;28;20104;-81
2022/10/05 07:02:37;;;;;;;5.47;3.45;;;;;;;13.51;47.87;101345.34;5034735;28;20037;-82
2022/10/05 07:05:31;;;;;;;5.13;3.22;;;;;;;13.50;47.68;101349.97;5041480;28;20041;-81
2022/10/05 07:08:04;;;;;;;4.93;3.25;;;;;;;13.51;47.10;101348.97;5024288;28;20072;-82
2022/10/05 07:10:38;;;;;;;5.95;3.70;;;;;;;13.52;47.47;101344.34;5015311;28;20045;-81
2022/10/05 07:13:28;;;;;;;5.45;3.38;;;;;;;13.57;47.90;101347.56;5027016;28;20041;-81
2022/10/05 07:16:04;;;;;;;5.13;3.30;;;;;;;13.57;47.58;101342.94;5017100;28;20045;-82
2022/10/05 07:19:07;;;;;;;4.57;3.30;;;;;;;13.56;47.87;101345.78;5036488;28;20037;-82
2022/10/05 07:21:44;;;;;;;5.03;2.83;;;;;;;13.59;47.94;101346.41;5039297;28;20092;-79
2022/10/05 07:24:28;;;;;;;6.30;3.55;;;;;;;13.64;47.40;101345.97;5044115;28;20041;-81
2022/10/05 07:27:07;;;;;;;5.10;3.13;;;;;;;13.65;47.79;101347.72;5040218;28;20447;-80
2022/10/05 07:29:44;;;;;;;5.63;3.30;;;;;;;13.66;47.54;101343.94;5023876;28;20045;-81
2022/10/05 07:32:24;;;;;;;5.25;3.05;;;;;;;13.71;47.67;101354.50;5014373;28;20045;-81
2022/10/05 07:35:02;;;;;;;5.22;3.35;;;;;;;13.73;47.33;101356.13;5011296;28;20092;-83
2022/10/05 07:37:56;;;;;;;5.00;3.42;;;;;;;13.73;47.67;101350.63;5035669;28;20144;-81
2022/10/05 07:40:32;;;;;;;6.13;3.22;;;;;;;13.74;47.55;101348.72;5030751;28;20066;-82
2022/10/05 07:43:13;;;;;;;4.70;3.08;;;;;;;13.76;47.63;101353.09;5032603;28;20057;-82
2022/10/05 07:45:46;;;;;;;4.43;3.03;;;;;;;13.78;47.72;101358.44;5015201;28;20137;-80
2022/10/05 07:48:19;;;;;;;9.52;3.40;;;;;;;13.80;47.31;101349.03;5032287;28;20041;-80
2022/10/05 07:50:59;;;;;;;4.95;3.22;;;;;;;13.82;47.80;101349.75;5015361;28;20037;-80
2022/10/05 07:53:32;;;;;;;4.28;2.58;;;;;;;13.84;47.68;101356.00;5005970;28;20080;-80
2022/10/05 07:56:06;;;;;;;4.53;2.78;;;;;;;13.86;47.69;101358.59;5018766;28;20033;-81
2022/10/05 07:58:41;;;;;;;5.03;3.03;;;;;;;13.87;47.40;101346.56;5041671;28;20049;-81
2022/10/05 08:01:17;;;;;;;4.50;3.03;;;;;;;13.89;47.36;101353.66;5029704;28;20519;-82
2022/10/05 08:03:56;;;;;;;6.63;2.88;;;;;;;13.93;47.89;101357.88;5045523;28;20497;-81
2022/10/05 08:06:34;;;;;;;5.55;2.97;;;;;;;13.96;47.48;101351.19;5016270;28;20103;-81
2022/10/05 08:09:09;;;;;;;4.78;2.83;;;;;;;13.97;47.61;101345.56;5040109;28;20045;-80
2022/10/05 08:11:45;;;;;;;4.75;3.00;;;;;;;13.99;47.65;101342.66;5017050;28;20489;-81
2022/10/05 08:14:19;;;;;;;5.18;3.00;;;;;;;14.02;47.46;101342.41;5030856;28;20049;-82
2022/10/05 08:16:51;;;;;;;6.95;3.45;;;;;;;14.05;47.56;101349.47;5044232;28;20042;-81
2022/10/05 08:19:25;;;;;;;4.00;2.47;;;;;;;14.08;47.34;101336.31;5025515;28;20042;-81
2022/10/05 08:22:00;;;;;;;5.13;2.70;;;;;;;14.12;47.59;101339.59;5028316;28;20049;-81
2022/10/05 08:24:40;;;;;;;4.43;2.83;;;;;;;14.16;47.57;101339.19;5031151;28;20048;-81
2022/10/05 08:27:16;;;;;;;4.55;2.42;;;;;;;14.18;47.50;101339.91;5018500;28;20053;-82
2022/10/05 08:29:54;;;;;;;3.78;2.47;;;;;;;14.22;47.57;101335.84;5031148;28;20500;-81
2022/10/05 08:32:25;;;;;;;4.35;2.60;;;;;;;14.26;47.30;101344.69;5015817;28;20056;-81
2022/10/05 08:34:58;;;;;;;3.47;2.58;;;;;;;14.30;47.20;101330.47;5041518;28;20127;-82
2022/10/05 08:37:31;;;;;;;4.18;2.67;;;;;;;14.33;47.59;101334.81;5054411;28;20396;-81
2022/10/05 08:40:25;;;;;;;4.47;2.35;;;;;;;14.39;47.17;101332.34;5017189;28;20030;-81
2022/10/05 08:43:05;;;;;;;4.47;2.70;;;;;;;14.43;47.27;101337.56;5036533;28;20049;-81
2022/10/05 08:45:54;;;;;;;3.60;2.40;;;;;;;14.48;47.48;101341.63;5045559;28;20124;-82
2022/10/05 08:48:51;;;;;;;4.28;2.65;;;;;;;14.51;47.05;101335.84;5020723;28;20320;-81
2022/10/05 08:51:49;;;;;;;3.72;2.22;;;;;;;14.57;47.40;101331.63;5020692;28;20068;-82
2022/10/05 08:54:39;;;;;;;4.65;2.38;;;;;;;14.61;47.48;101338.53;5043798;28;20497;-81
2022/10/05 08:57:26;;;;;;;4.10;2.50;;;;;;;14.68;46.85;101342.47;5047435;28;20068;-81
2022/10/05 09:00:06;;;;;;;3.28;2.25;;;;;;;14.73;47.16;101337.38;5036911;28;20053;-81
2022/10/05 09:02:58;;;;;;;3.58;2.28;;;;;;;14.79;46.95;101328.50;5020392;28;20080;-81
2022/10/05 09:06:14;;;;;;;4.30;2.53;;;;;;;14.83;47.16;101331.81;5018978;28;20502;-82
2022/10/05 09:09:12;;;;;;;4.90;2.80;;;;;;;14.89;47.11;101332.09;5039155;28;20076;-83
2022/10/05 09:11:49;;;;;;;4.57;2.60;;;;;;;14.94;46.90;101326.09;5024482;28;20040;-81
2022/10/05 09:14:45;;;;;;;4.10;2.58;;;;;;;14.99;46.82;101318.28;5034931;28;20123;-81
2022/10/05 09:17:51;;;;;;;6.22;3.03;;;;;;;15.04;46.52;101324.19;5019032;28;20095;-82
2022/10/05 09:20:31;;;;;;;4.05;2.63;;;;;;;15.09;46.45;101327.38;5004095;28;20050;-83
2022/10/05 09:23:04;;;;;;;5.15;2.72;;;;;;;15.11;47.09;101322.53;5022512;28;20041;-81
2022/10/05 09:25:49;;;;;;;4.15;2.72;;;;;;;15.18;46.33;101322.81;5022177;28;20261;-81
2022/10/05 09:28:25;;;;;;;4.28;2.72;;;;;;;15.21;46.64;101325.25;5021942;28;20049;-83
2022/10/05 09:30:58;;;;;;;4.75;2.47;;;;;;;15.26;46.62;101315.50;5048257;28;20041;-82
2022/10/05 09:33:58;;;;;;;4.72;2.65;;;;;;;15.30;46.09;101316.94;5041586;28;20105;-82
2022/10/05 09:37:02;;;;;;;4.28;2.70;;;;;;;15.33;46.73;101316.63;5037095;28;20106;-81
2022/10/05 09:40:04;;;;;;;4.30;2.97;;;;;;;15.36;46.44;101312.72;5056152;28;20144;-82
2022/10/05 09:43:18;;;;;;;4.38;2.50;;;;;;;15.34;46.06;101317.53;5016017;28;20052;-80
2022/10/05 09:46:24;;;;;;;3.88;2.28;;;;;;;15.44;46.29;101312.81;4970639;28;20059;-81
2022/10/05 09:49:09;;;;;;;3.72;2.40;;;;;;;15.49;45.85;101316.88;4996409;28;20074;-82
2022/10/05 09:52:09;;;;;;;3.38;2.28;;;;;;;15.48;45.89;101317.88;5015391;28;20100;-81
2022/10/05 09:55:17;;;;;;;3.38;2.00;;;;;;;15.51;45.83;101312.03;5026101;28;20052;-81
2022/10/05 09:58:19;;;;;;;3.72;2.20;;;;;;;15.58;46.15;101315.06;5027771;28;20053;-81
2022/10/05 10:01:00;;;;;;;4.45;2.28;;;;;;;15.62;46.28;101308.19;5028010;28;20038;-81
2022/10/05 10:04:23;;;;;;;4.78;2.25;;;;;;;15.61;45.83;101305.59;5052698;28;20045;-81
2022/10/05 10:07:16;;;;;;;3.35;1.73;;;;;;;15.68;46.09;101295.66;4999216;28;20041;-80
2022/10/05 10:09:52;;;;;;;;;;;;;;;15.41;46.85;101302.97;5019806;28;20562;-80
2022/10/05 10:12:32;;;;;;;2.45;1.60;;;;;;;15.73;45.53;101298.81;5031025;28;19972;-82
2022/10/05 10:15:28;;;;;;;3.40;2.00;;;;;;;15.78;45.94;101310.25;5049520;28;20507;-83
2022/10/05 10:18:19;;;;;;;3.25;1.92;;;;;;;15.82;45.46;101307.03;5020747;28;20175;-82
2022/10/05 10:21:16;;;;;;;3.00;2.05;;;;;;;15.83;45.51;101308.78;5004793;28;20057;-82
2022/10/05 10:24:03;;;;;;;4.30;2.42;;;;;;;15.87;45.30;101307.41;5025755;28;20064;-82
2022/10/05 10:27:16;;;;;;;4.78;2.40;;;;;;;15.89;45.43;101298.97;5037278;28;20048;-82
2022/10/05 10:30:02;;;;;;;4.40;1.98;;;;;;;15.90;45.43;101309.00;5037577;28;20052;-82
2022/10/05 10:32:59;;;;;;;3.05;1.90;;;;;;;15.96;45.63;101307.47;5037359;28;20061;-82
2022/10/05 10:35:35;;;;;;;3.60;2.05;;;;;;;15.97;45.30;101303.69;4988401;28;20131;-82
2022/10/05 10:38:21;;;;;;;4.25;2.20;;;;;;;16.03;45.23;101303.06;5019662;28;20072;-83
2022/10/05 10:41:11;;;;;;;3.30;2.13;;;;;;;16.05;45.52;101309.28;5049105;28;20079;-83
2022/10/05 10:44:03;;;;;;;5.15;2.55;;;;;;;16.07;45.39;101308.13;5031499;28;20041;-82
2022/10/05 10:46:39;;;;;;;3.22;2.10;;;;;;;16.13;45.18;101306.59;5018334;28;20050;-83
2022/10/05 10:49:25;;;;;;;3.72;2.00;;;;;;;16.18;45.26;101307.00;5029233;28;20124;-83
2022/10/05 10:52:08;;;;;;;3.92;2.08;;;;;;;16.21;45.76;101290.13;5012747;28;20120;-83
2022/10/05 10:55:08;;;;;;;3.50;1.90;;;;;;;16.23;45.60;101283.44;5024622;28;20107;-83
2022/10/05 10:57:57;;;;;;;3.72;2.13;;;;;;;16.31;45.43;101281.75;5016993;28;20065;-82
2022/10/05 11:00:42;;;;;;;3.50;1.90;;;;;;;16.38;45.11;101282.84;5020822;28;20098;-82
2022/10/05 11:03:49;;;;;;;2.80;1.90;;;;;;;16.42;45.55;101265.75;5019015;28;20042;-82
2022/10/05 11:06:27;;;;;;;3.78;1.90;;;;;;;16.53;45.96;101265.50;5017307;28;20046;-82
2022/10/05 11:09:11;;;;;;;3.35;1.98;;;;;;;16.62;45.57;101253.47;5019131;28;20147;-82
2022/10/05 11:12:12;;;;;;;4.53;2.33;;;;;;;16.75;45.78;101257.66;5017151;28;20092;-82
2022/10/05 11:15:01;;;;;;;2.92;1.90;;;;;;;16.88;46.08;101253.41;5018280;28;20108;-82
2022/10/05 11:18:01;;;;;;;3.78;1.95;;;;;;;17.00;45.98;101245.72;5037311;28;20049;-81
2022/10/05 11:21:06;;;;;;;3.63;2.10;;;;;;;17.15;45.59;101240.44;5019776;28;20072;-82
2022/10/05 11:23:58;;;;;;;3.53;1.92;;;;;;;17.33;45.14;101230.06;5023113;28;20059;-82
2022/10/05 11:26:58;;;;;;;3.60;2.03;;;;;;;17.47;44.95;101231.34;5017707;28;20049;-82
2022/10/05 11:29:58;;;;;;;3.70;1.88;;;;;;;17.60;44.52;101223.38;5013736;28;20046;-82
2022/10/05 11:33:03;;;;;;;3.70;1.98;;;;;;;17.74;44.63;101220.81;5019326;28;20047;-82
2022/10/05 11:35:47;;;;;;;6.22;2.50;;;;;;;17.90;44.31;101203.34;5014173;28;20037;-83
2022/10/05 11:38:28;;;;;;;3.63;2.20;;;;;;;18.04;44.30;101210.97;5022297;28;20096;-82
2022/10/05 11:41:40;;;;;;;6.63;2.22;;;;;;;18.11;43.93;101206.44;4993670;28;20053;-82
2022/10/05 11:44:50;;;;;;;3.58;2.10;;;;;;;18.25;43.71;101193.78;5014487;28;20117;-82
2022/10/05 11:47:24;;;;;;;3.58;2.20;;;;;;;18.38;43.34;101182.16;5015169;28;20154;-82
2022/10/05 11:50:04;;;;;;;3.45;2.00;;;;;;;18.50;43.33;101177.97;5023845;28;20320;-82
2022/10/05 11:52:40;;;;;;;3.85;2.08;;;;;;;18.59;42.90;101167.72;5026886;28;20050;-82
2022/10/05 11:55:23;;;;;;;3.42;2.00;;;;;;;18.67;42.50;101160.25;5020188;28;20045;-83
2022/10/05 11:57:55;;;;;;;3.85;2.35;;;;;;;18.75;43.02;101156.56;5039566;28;20046;-83
2022/10/05 12:00:25;;;;;;;3.17;2.22;;;;;;;18.82;42.99;101160.34;5036527;28;20208;-83
2022/10/05 12:03:12;;;;;;;3.95;2.63;;;;;;;18.92;41.85;101151.78;5042216;28;20053;-83
2022/10/05 12:05:52;;;;;;;3.47;2.45;;;;;;;18.97;42.10;101144.66;5022221;28;20500;-83
2022/10/05 12:08:30;;;;;;;3.65;2.42;;;;;;;19.05;42.18;101141.81;5013926;28;20052;-83
2022/10/05 12:11:13;;;;;;;4.43;2.67;;;;;;;19.11;41.89;101145.78;5038176;28;20049;-82
2022/10/05 12:13:43;;;;;;;;;;;;;;;18.85;43.26;101133.13;5045357;28;20048;-83
2022/10/05 12:16:18;;;;;;;3.03;1.90;;;;;;;19.19;41.78;101126.31;5048559;28;19992;-82
2022/10/05 12:18:53;;;;;;;3.15;1.90;;;;;;;19.27;40.99;101123.50;5050090;28;20049;-84
2022/10/05 12:21:39;;;;;;;3.08;1.95;;;;;;;19.34;41.03;101123.63;4993704;28;20164;-82
2022/10/05 12:24:15;;;;;;;4.10;1.83;;;;;;;19.40;40.94;101109.88;5014145;28;20120;-82
2022/10/05 12:26:50;;;;;;;2.50;1.83;;;;;;;19.46;40.73;101102.72;5009355;28;20059;-83
2022/10/05 12:29:25;;;;;;;2.28;1.70;;;;;;;19.52;41.01;101099.19;5014728;28;20049;-83
2022/10/05 12:32:01;;;;;;;2.30;1.40;;;;;;;19.58;40.58;101095.66;5022445;28;20029;-83